EWG9MY EDDL-HEGN
Flight info
| Callsign | EWG9MY |
|---|---|
| Flight time | N/A |
| Altitude | 33000 |
| Route | DODEN1T DODEN Y853 BOMBI DCT DETEV DCT DINKU M867 XERUM DCT BAVAX DCT RADIZ/N0446F370 DCT GORPA DCT PETAK DCT DIMIS/N0456F390 UL604 SALUN N705 MMA P751 DASUM Y234 FYM M872 BOPOB BOPOB1A |
| Aircraft | A320/M-SDE2E3FGHIRWXY/LB1 |
Departure
| Time | 2026-02-17 11:12 |
|---|---|
| Airport | Düsseldorf Airport (EDDL) |
Arrival
| Time | N/A |
|---|---|
| Airport | Hurghada International Airport (HEGN) |
| Time | Latitude | Longitude | Altitude | Speed | Heading |
|---|---|---|---|---|---|
| 2026-02-17 10:27 | 51.27656 | 6.76154 | 137 ft | 0 kts | 79° |
| 2026-02-17 10:57 | 51.27655 | 6.76151 | 137 ft | 3 kts | 78° |
| 2026-02-17 10:57 | 51.27650 | 6.76109 | 137 ft | 4 kts | 78° |
| 2026-02-17 10:57 | 51.27644 | 6.76065 | 118 ft | 4 kts | 79° |
| 2026-02-17 10:58 | 51.27640 | 6.76041 | 137 ft | 2 kts | 10° |
| 2026-02-17 10:58 | 51.27629 | 6.76042 | 137 ft | 2 kts | 345° |
| 2026-02-17 10:58 | 51.27618 | 6.76047 | 143 ft | 2 kts | 342° |
| 2026-02-17 10:59 | 51.27610 | 6.76051 | 137 ft | 0 kts | 342° |
| 2026-02-17 11:04 | 51.27621 | 6.76045 | 137 ft | 3 kts | 342° |
| 2026-02-17 11:04 | 51.27662 | 6.76040 | 137 ft | 8 kts | 359° |
| 2026-02-17 11:04 | 51.27731 | 6.76039 | 137 ft | 11 kts | 0° |
| 2026-02-17 11:05 | 51.27815 | 6.76044 | 137 ft | 13 kts | 2° |
| 2026-02-17 11:05 | 51.27910 | 6.76048 | 137 ft | 14 kts | 1° |
| 2026-02-17 11:05 | 51.28006 | 6.76046 | 137 ft | 13 kts | 359° |
| 2026-02-17 11:05 | 51.28096 | 6.76034 | 136 ft | 13 kts | 345° |
| 2026-02-17 11:06 | 51.28166 | 6.76098 | 136 ft | 13 kts | 54° |
| 2026-02-17 11:06 | 51.28227 | 6.76226 | 136 ft | 15 kts | 52° |
| 2026-02-17 11:06 | 51.28296 | 6.76372 | 136 ft | 17 kts | 53° |
| 2026-02-17 11:07 | 51.28458 | 6.76712 | 136 ft | 21 kts | 52° |
| 2026-02-17 11:07 | 51.28549 | 6.76901 | 136 ft | 22 kts | 52° |
| 2026-02-17 11:07 | 51.28645 | 6.77103 | 137 ft | 24 kts | 52° |
| 2026-02-17 11:07 | 51.28748 | 6.77316 | 136 ft | 25 kts | 54° |
| 2026-02-17 11:08 | 51.28853 | 6.77539 | 136 ft | 25 kts | 52° |
| 2026-02-17 11:08 | 51.28948 | 6.77736 | 136 ft | 22 kts | 52° |
| 2026-02-17 11:08 | 51.29042 | 6.77934 | 137 ft | 23 kts | 53° |
| 2026-02-17 11:08 | 51.29137 | 6.78133 | 137 ft | 22 kts | 53° |
| 2026-02-17 11:09 | 51.29227 | 6.78321 | 137 ft | 22 kts | 53° |
| 2026-02-17 11:09 | 51.29303 | 6.78481 | 137 ft | 18 kts | 53° |
| 2026-02-17 11:09 | 51.29383 | 6.78573 | 137 ft | 12 kts | 2° |
| 2026-02-17 11:09 | 51.29420 | 6.78568 | 138 ft | 0 kts | 355° |
| 2026-02-17 11:10 | 51.29424 | 6.78568 | 138 ft | 1 kts | 354° |
| 2026-02-17 11:10 | 51.29441 | 6.78565 | 138 ft | 4 kts | 354° |
| 2026-02-17 11:11 | 51.29525 | 6.78546 | 142 ft | 7 kts | 333° |
| 2026-02-17 11:11 | 51.29524 | 6.78476 | 142 ft | 8 kts | 237° |
| 2026-02-17 11:11 | 51.29417 | 6.78250 | 140 ft | 57 kts | 233° |
| 2026-02-17 11:11 | 51.29048 | 6.77474 | 133 ft | 116 kts | 233° |
| 2026-02-17 11:12 | 51.28460 | 6.76252 | 144 ft | 159 kts | 234° |
| 2026-02-17 11:12 | 51.27792 | 6.74877 | 820 ft | 153 kts | 237° |
| 2026-02-17 11:12 | 51.27164 | 6.73544 | 1767 ft | 149 kts | 235° |
| 2026-02-17 11:12 | 51.26500 | 6.72254 | 2371 ft | 153 kts | 234° |
| 2026-02-17 11:13 | 51.25760 | 6.70890 | 2811 ft | 171 kts | 234° |
| 2026-02-17 11:13 | 51.25028 | 6.69300 | 3257 ft | 188 kts | 239° |
| 2026-02-17 11:13 | 51.24268 | 6.67476 | 3679 ft | 209 kts | 240° |
| 2026-02-17 11:13 | 51.23406 | 6.65505 | 4232 ft | 222 kts | 233° |
| 2026-02-17 11:14 | 51.22120 | 6.63942 | 4753 ft | 248 kts | 207° |
| 2026-02-17 11:14 | 51.20346 | 6.63523 | 5405 ft | 269 kts | 180° |
| 2026-02-17 11:14 | 51.18476 | 6.63843 | 6294 ft | 273 kts | 178° |
| 2026-02-17 11:15 | 51.14738 | 6.65356 | 8005 ft | 293 kts | 149° |
| 2026-02-17 11:15 | 51.13317 | 6.67738 | 8821 ft | 304 kts | 122° |
| 2026-02-17 11:15 | 51.12626 | 6.70893 | 9615 ft | 311 kts | 96° |
| 2026-02-17 11:15 | 51.12674 | 6.74398 | 10260 ft | 320 kts | 81° |
| 2026-02-17 11:16 | 51.13011 | 6.77979 | 10519 ft | 342 kts | 79° |
| 2026-02-17 11:16 | 51.13368 | 6.81879 | 10877 ft | 359 kts | 81° |
| 2026-02-17 11:16 | 51.13635 | 6.85810 | 11634 ft | 362 kts | 84° |
| 2026-02-17 11:16 | 51.13838 | 6.89827 | 12432 ft | 367 kts | 85° |
| 2026-02-17 11:17 | 51.14003 | 6.93901 | 13234 ft | 370 kts | 86° |
| 2026-02-17 11:17 | 51.14151 | 6.98009 | 13989 ft | 373 kts | 86° |
| 2026-02-17 11:17 | 51.14296 | 7.02163 | 14674 ft | 377 kts | 86° |
| 2026-02-17 11:17 | 51.14440 | 7.06363 | 15350 ft | 381 kts | 86° |
| 2026-02-17 11:18 | 51.14585 | 7.10595 | 16008 ft | 384 kts | 86° |
| 2026-02-17 11:18 | 51.14731 | 7.14855 | 16661 ft | 388 kts | 86° |
| 2026-02-17 11:18 | 51.14878 | 7.19183 | 17301 ft | 392 kts | 86° |
| 2026-02-17 11:19 | 51.15173 | 7.27937 | 18496 ft | 399 kts | 86° |
| 2026-02-17 11:19 | 51.15320 | 7.32379 | 19016 ft | 404 kts | 86° |
| 2026-02-17 11:19 | 51.15362 | 7.36864 | 19537 ft | 408 kts | 95° |
| 2026-02-17 11:19 | 51.14711 | 7.41286 | 20024 ft | 410 kts | 114° |
| 2026-02-17 11:20 | 51.13285 | 7.45214 | 20516 ft | 410 kts | 131° |
| 2026-02-17 11:20 | 51.11277 | 7.48315 | 20999 ft | 409 kts | 144° |
| 2026-02-17 11:20 | 51.08998 | 7.51055 | 21508 ft | 411 kts | 148° |
| 2026-02-17 11:20 | 51.06666 | 7.53728 | 22000 ft | 415 kts | 148° |
| 2026-02-17 11:21 | 51.04322 | 7.56444 | 22508 ft | 419 kts | 147° |
| 2026-02-17 11:21 | 51.01976 | 7.59220 | 23012 ft | 423 kts | 147° |
| 2026-02-17 11:21 | 50.99698 | 7.61953 | 23465 ft | 427 kts | 146° |
| 2026-02-17 11:21 | 50.97326 | 7.64820 | 23852 ft | 430 kts | 146° |
| 2026-02-17 11:22 | 50.94934 | 7.67716 | 24246 ft | 434 kts | 146° |
| 2026-02-17 11:22 | 50.92526 | 7.70631 | 24635 ft | 437 kts | 146° |
| 2026-02-17 11:22 | 50.90097 | 7.73566 | 25000 ft | 440 kts | 146° |
| 2026-02-17 11:23 | 50.85177 | 7.79497 | 25712 ft | 447 kts | 146° |
| 2026-02-17 11:23 | 50.82689 | 7.82490 | 26077 ft | 450 kts | 146° |
| 2026-02-17 11:23 | 50.80185 | 7.85497 | 26418 ft | 454 kts | 146° |
| 2026-02-17 11:23 | 50.77660 | 7.88524 | 26721 ft | 458 kts | 146° |
| 2026-02-17 11:24 | 50.75142 | 7.91539 | 27055 ft | 461 kts | 146° |
| 2026-02-17 11:24 | 50.72582 | 7.94601 | 27375 ft | 464 kts | 146° |
| 2026-02-17 11:24 | 50.69996 | 7.97688 | 27691 ft | 467 kts | 146° |
| 2026-02-17 11:24 | 50.67353 | 8.00840 | 27966 ft | 471 kts | 146° |
| 2026-02-17 11:25 | 50.64767 | 8.03918 | 28273 ft | 474 kts | 146° |
| 2026-02-17 11:25 | 50.62119 | 8.07067 | 28575 ft | 476 kts | 146° |
| 2026-02-17 11:25 | 50.59465 | 8.10223 | 28873 ft | 479 kts | 145° |
| 2026-02-17 11:25 | 50.56851 | 8.13537 | 29116 ft | 484 kts | 142° |
| 2026-02-17 11:26 | 50.54273 | 8.16974 | 29419 ft | 487 kts | 142° |
| 2026-02-17 11:26 | 50.51693 | 8.20431 | 29707 ft | 489 kts | 142° |
| 2026-02-17 11:26 | 50.49085 | 8.23896 | 29962 ft | 492 kts | 142° |
| 2026-02-17 11:27 | 50.43812 | 8.30817 | 30461 ft | 496 kts | 143° |
| 2026-02-17 11:27 | 50.41160 | 8.34275 | 30759 ft | 497 kts | 143° |
| 2026-02-17 11:27 | 50.38490 | 8.37749 | 31061 ft | 498 kts | 143° |
| 2026-02-17 11:27 | 50.35827 | 8.41207 | 31356 ft | 498 kts | 143° |
| 2026-02-17 11:28 | 50.33155 | 8.44672 | 31667 ft | 499 kts | 143° |
| 2026-02-17 11:28 | 50.30478 | 8.48138 | 31925 ft | 500 kts | 143° |
| 2026-02-17 11:28 | 50.27799 | 8.51601 | 32140 ft | 502 kts | 143° |
| 2026-02-17 11:28 | 50.25090 | 8.55099 | 32341 ft | 504 kts | 143° |
| 2026-02-17 11:29 | 50.22399 | 8.58566 | 32552 ft | 506 kts | 143° |
| 2026-02-17 11:29 | 50.19672 | 8.62075 | 32763 ft | 508 kts | 143° |
| 2026-02-17 11:29 | 50.16898 | 8.65640 | 32823 ft | 511 kts | 143° |
| 2026-02-17 11:30 | 50.11404 | 8.72685 | 32829 ft | 511 kts | 143° |
| 2026-02-17 11:30 | 50.06240 | 8.80310 | 32822 ft | 513 kts | 129° |
| 2026-02-17 11:31 | 50.02576 | 8.89856 | 32826 ft | 513 kts | 114° |
| 2026-02-17 11:31 | 50.01039 | 8.94859 | 32821 ft | 512 kts | 114° |
| 2026-02-17 11:31 | 49.98471 | 9.03146 | 32812 ft | 511 kts | 115° |
| 2026-02-17 11:32 | 49.95360 | 9.13095 | 32807 ft | 511 kts | 115° |
| 2026-02-17 11:32 | 49.92249 | 9.22991 | 32802 ft | 510 kts | 115° |
| 2026-02-17 11:33 | 49.89118 | 9.32914 | 32795 ft | 510 kts | 115° |
| 2026-02-17 11:33 | 49.85988 | 9.42791 | 32785 ft | 510 kts | 115° |
| 2026-02-17 11:34 | 49.82625 | 9.52367 | 32785 ft | 510 kts | 124° |
| 2026-02-17 11:35 | 49.75349 | 9.64386 | 32778 ft | 508 kts | 138° |
| 2026-02-17 11:35 | 49.70179 | 9.71859 | 32784 ft | 509 kts | 138° |
| 2026-02-17 11:36 | 49.65003 | 9.79337 | 32781 ft | 509 kts | 138° |
| 2026-02-17 11:36 | 49.59815 | 9.86807 | 32789 ft | 510 kts | 138° |
| 2026-02-17 11:37 | 49.54623 | 9.94258 | 32791 ft | 511 kts | 138° |
| 2026-02-17 11:37 | 49.49418 | 10.01705 | 32795 ft | 511 kts | 138° |
| 2026-02-17 11:38 | 49.44181 | 10.09174 | 32801 ft | 512 kts | 138° |
| 2026-02-17 11:38 | 49.38972 | 10.16582 | 33065 ft | 514 kts | 138° |
| 2026-02-17 11:39 | 49.33693 | 10.24066 | 33727 ft | 512 kts | 138° |
| 2026-02-17 11:39 | 49.31064 | 10.27786 | 34012 ft | 511 kts | 138° |
| 2026-02-17 11:39 | 49.28492 | 10.31419 | 34283 ft | 509 kts | 139° |
| 2026-02-17 11:39 | 49.25884 | 10.35087 | 34552 ft | 507 kts | 140° |
| 2026-02-17 11:40 | 49.23110 | 10.38536 | 34807 ft | 504 kts | 146° |
| 2026-02-17 11:40 | 49.20229 | 10.41456 | 35043 ft | 501 kts | 152° |
| 2026-02-17 11:40 | 49.17237 | 10.44152 | 35275 ft | 500 kts | 152° |
| 2026-02-17 11:40 | 49.14206 | 10.46890 | 35500 ft | 499 kts | 152° |
| 2026-02-17 11:41 | 49.11260 | 10.49559 | 35699 ft | 498 kts | 152° |
| 2026-02-17 11:41 | 49.08281 | 10.52261 | 35874 ft | 498 kts | 152° |
| 2026-02-17 11:41 | 49.05305 | 10.54960 | 36044 ft | 498 kts | 152° |
| 2026-02-17 11:41 | 49.02320 | 10.57664 | 36195 ft | 498 kts | 152° |
| 2026-02-17 11:42 | 48.99339 | 10.60361 | 36345 ft | 498 kts | 152° |
| 2026-02-17 11:42 | 48.96354 | 10.63057 | 36482 ft | 499 kts | 152° |
| 2026-02-17 11:42 | 48.93363 | 10.65756 | 36602 ft | 500 kts | 152° |
| 2026-02-17 11:43 | 48.87363 | 10.71156 | 36820 ft | 501 kts | 152° |
| 2026-02-17 11:43 | 48.81499 | 10.77030 | 36823 ft | 510 kts | 142° |
| 2026-02-17 11:44 | 48.76400 | 10.84581 | 36834 ft | 515 kts | 131° |
| 2026-02-17 11:44 | 48.71622 | 10.92678 | 36834 ft | 514 kts | 132° |
| 2026-02-17 11:45 | 48.66820 | 11.00728 | 36834 ft | 515 kts | 132° |
| 2026-02-17 11:45 | 48.62005 | 11.08754 | 36834 ft | 515 kts | 132° |
| 2026-02-17 11:46 | 48.57186 | 11.16760 | 36830 ft | 515 kts | 132° |